createdAt,value
2019-02-19T00:01:05.358Z,10.03
2019-02-19T00:03:33.818Z,9.60
2019-02-19T00:06:02.417Z,10.03
2019-02-19T00:08:30.839Z,9.17
2019-02-19T00:10:59.419Z,10.03
2019-02-19T00:13:27.792Z,8.97
2019-02-19T00:15:59.269Z,9.90
2019-02-19T00:18:27.754Z,9.53
2019-02-19T00:20:56.177Z,8.70
2019-02-19T00:23:24.548Z,10.27
2019-02-19T00:25:53.102Z,8.43
2019-02-19T00:28:21.581Z,10.47
2019-02-19T00:30:50.108Z,9.07
2019-02-19T00:33:18.640Z,9.40
2019-02-19T00:35:47.191Z,9.37
2019-02-19T00:38:15.577Z,9.00
2019-02-19T00:40:44.037Z,9.57
2019-02-19T00:43:12.499Z,9.13
2019-02-19T00:45:40.988Z,8.30
2019-02-19T00:48:09.489Z,9.40
2019-02-19T00:50:37.992Z,9.00
2019-02-19T00:53:06.474Z,8.30
2019-02-19T00:55:34.994Z,8.43
2019-02-19T00:58:03.475Z,8.20
2019-02-19T01:00:31.912Z,8.57
2019-02-19T01:03:00.392Z,8.67
2019-02-19T01:05:28.856Z,9.70
2019-02-19T01:07:57.333Z,8.63
2019-02-19T01:10:25.813Z,9.27
2019-02-19T01:12:54.268Z,8.33
2019-02-19T01:15:25.433Z,8.27
2019-02-19T01:17:52.788Z,7.87
2019-02-19T01:20:21.355Z,8.60
2019-02-19T01:22:49.789Z,8.77
2019-02-19T01:25:18.332Z,8.73
2019-02-19T01:27:46.815Z,8.60
2019-02-19T01:30:15.289Z,9.73
2019-02-19T01:32:43.861Z,9.20
2019-02-19T01:35:12.321Z,9.43
2019-02-19T01:37:40.695Z,8.97
2019-02-19T01:40:09.539Z,8.80
2019-02-19T01:42:38.029Z,9.43
2019-02-19T01:45:07.230Z,10.07
2019-02-19T01:47:35.696Z,9.43
2019-02-19T01:50:04.699Z,10.20
2019-02-19T01:52:33.155Z,10.63
2019-02-19T01:55:01.577Z,9.63
2019-02-19T01:57:30.053Z,10.63
2019-02-19T01:59:58.550Z,10.87
2019-02-19T02:02:27.042Z,9.93
2019-02-19T02:04:55.516Z,10.67
2019-02-19T02:07:23.976Z,11.10
2019-02-19T02:09:52.461Z,10.33
2019-02-19T02:12:20.938Z,10.33
2019-02-19T02:14:49.328Z,10.20
2019-02-19T02:17:17.812Z,10.67
2019-02-19T02:19:46.192Z,10.40
2019-02-19T02:22:14.680Z,11.43
2019-02-19T02:24:43.160Z,11.83
2019-02-19T02:27:11.628Z,11.40
2019-02-19T02:29:40.084Z,13.03
2019-02-19T02:32:08.608Z,12.70
2019-02-19T02:34:37.012Z,13.97
2019-02-19T02:37:05.499Z,15.43
2019-02-19T02:39:34.016Z,14.60
2019-02-19T02:42:09.991Z,16.17
2019-02-19T02:44:38.440Z,15.23
2019-02-19T02:47:06.904Z,15.57
2019-02-19T02:49:35.440Z,14.93
2019-02-19T02:52:03.896Z,15.57
2019-02-19T02:54:32.365Z,16.03
2019-02-19T02:57:00.909Z,15.63
2019-02-19T02:59:29.368Z,16.07
2019-02-19T03:01:57.809Z,15.57
2019-02-19T03:04:26.288Z,16.97
2019-02-19T03:07:06.239Z,17.73
2019-02-19T03:09:34.733Z,18.60
2019-02-19T03:12:03.240Z,18.70
2019-02-19T03:14:31.685Z,18.90
2019-02-19T03:17:00.077Z,20.70
2019-02-19T03:19:28.479Z,18.87
2019-02-19T03:21:56.852Z,21.93
2019-02-19T03:24:25.288Z,23.00
2019-02-19T03:26:53.657Z,19.67
2019-02-19T03:29:22.085Z,20.40
2019-02-19T03:31:50.575Z,20.27
2019-02-19T03:34:18.954Z,19.70
2019-02-19T03:36:47.404Z,20.30
2019-02-19T03:39:15.796Z,18.10
2019-02-19T03:41:44.268Z,19.47
2019-02-19T03:44:12.744Z,19.33
2019-02-19T03:46:41.126Z,18.77
2019-02-19T03:49:09.599Z,19.60
2019-02-19T03:51:38.060Z,19.50
2019-02-19T03:54:06.529Z,20.10
2019-02-19T03:56:35.029Z,18.47
2019-02-19T03:59:03.642Z,20.70
2019-02-19T04:01:32.117Z,19.80
2019-02-19T04:04:00.537Z,20.50
2019-02-19T04:06:28.917Z,21.83
2019-02-19T04:08:57.445Z,20.97
2019-02-19T04:11:25.933Z,20.97
2019-02-19T04:13:54.328Z,22.07
2019-02-19T04:16:22.809Z,21.67
2019-02-19T04:18:51.295Z,24.03
2019-02-19T04:21:19.776Z,23.10
2019-02-19T04:23:48.237Z,23.93
2019-02-19T04:26:16.729Z,25.27
2019-02-19T04:28:45.102Z,25.43
2019-02-19T04:31:13.504Z,23.57
2019-02-19T04:33:41.931Z,27.13
2019-02-19T04:36:10.437Z,26.20
2019-02-19T04:38:38.897Z,27.97
2019-02-19T04:41:07.305Z,27.07
2019-02-19T04:43:35.728Z,27.73
2019-02-19T04:46:04.195Z,26.50
2019-02-19T04:48:32.724Z,25.73
2019-02-19T04:51:01.209Z,23.03
2019-02-19T04:53:29.714Z,23.43
2019-02-19T04:55:58.269Z,23.43
2019-02-19T04:58:26.757Z,23.87
2019-02-19T05:00:55.205Z,21.83
2019-02-19T05:03:29.384Z,22.13
2019-02-19T05:05:57.756Z,19.33
2019-02-19T05:08:26.214Z,19.60
2019-02-19T05:10:54.615Z,19.23
2019-02-19T05:13:23.099Z,19.27
2019-02-19T05:15:51.645Z,17.97
2019-02-19T05:18:19.995Z,19.00
2019-02-19T05:20:48.463Z,19.80
2019-02-19T05:23:16.875Z,19.27
2019-02-19T05:25:45.354Z,19.70
2019-02-19T05:28:13.844Z,20.23
2019-02-19T05:30:43.084Z,20.23
2019-02-19T05:33:11.637Z,21.10
2019-02-19T05:35:40.116Z,22.10
2019-02-19T05:38:08.537Z,21.40
2019-02-19T05:40:37.000Z,20.63
2019-02-19T05:43:06.085Z,21.20
2019-02-19T05:45:34.455Z,22.33
2019-02-19T05:48:05.181Z,23.20
2019-02-19T05:50:33.099Z,24.60
2019-02-19T05:53:01.719Z,24.00
2019-02-19T05:55:30.312Z,24.10
2019-02-19T05:57:58.908Z,22.53
2019-02-19T06:00:28.816Z,24.80
2019-02-19T06:02:57.314Z,26.60
2019-02-19T06:05:25.856Z,26.33
2019-02-19T06:07:54.321Z,28.17
2019-02-19T06:10:22.804Z,27.00
2019-02-19T06:12:51.311Z,28.90
2019-02-19T06:15:20.127Z,26.97
2019-02-19T06:17:48.536Z,29.03
2019-02-19T06:20:17.041Z,27.90
2019-02-19T06:22:45.506Z,29.53
2019-02-19T06:25:13.924Z,28.33
2019-02-19T06:27:42.413Z,31.65
2019-02-19T06:30:11.861Z,30.53
2019-02-19T06:32:40.309Z,30.87
2019-02-19T06:35:08.790Z,31.10
2019-02-19T06:37:37.277Z,32.07
2019-02-19T06:40:06.060Z,32.47
2019-02-19T06:42:34.454Z,32.93
2019-02-19T06:45:02.905Z,33.23
2019-02-19T06:47:31.258Z,33.60
2019-02-19T06:49:59.816Z,33.33
2019-02-19T06:52:28.180Z,34.50
2019-02-19T06:54:56.620Z,33.73
2019-02-19T06:57:25.067Z,34.97
2019-02-19T06:59:53.513Z,35.43
2019-02-19T07:02:41.075Z,34.03
2019-02-19T07:05:14.918Z,34.63
2019-02-19T07:07:43.378Z,34.73
2019-02-19T07:10:11.854Z,34.03
2019-02-19T07:12:40.204Z,33.27
2019-02-19T07:15:08.684Z,34.40
2019-02-19T07:17:37.168Z,33.87
2019-02-19T07:20:05.667Z,33.83
2019-02-19T07:22:34.105Z,32.83
2019-02-19T07:25:02.601Z,34.57
2019-02-19T07:27:31.054Z,34.50
2019-02-19T07:29:59.429Z,32.80
2019-02-19T07:32:27.901Z,33.07
2019-02-19T07:34:56.263Z,33.77
2019-02-19T07:37:24.716Z,35.83
2019-02-19T07:39:53.105Z,33.13
2019-02-19T07:42:21.541Z,32.23
2019-02-19T07:44:49.983Z,31.10
2019-02-19T07:47:24.473Z,31.67
2019-02-19T07:49:48.558Z,33.60
2019-02-19T07:52:17.032Z,35.13
2019-02-19T07:54:45.424Z,30.93
2019-02-19T07:57:13.820Z,33.30
2019-02-19T07:59:42.184Z,31.57
2019-02-19T08:02:10.667Z,32.83
2019-02-19T08:04:39.062Z,34.60
2019-02-19T08:07:07.516Z,30.93
2019-02-19T08:09:35.906Z,31.40
2019-02-19T08:12:04.337Z,30.43
2019-02-19T08:14:32.715Z,31.37
2019-02-19T08:17:01.220Z,29.33
2019-02-19T08:19:29.657Z,29.33
2019-02-19T08:21:58.008Z,29.97
2019-02-19T08:24:26.428Z,29.17
2019-02-19T08:26:54.885Z,29.17
2019-02-19T08:29:23.400Z,30.33
2019-02-19T08:31:51.867Z,28.73
2019-02-19T08:34:20.291Z,30.13
2019-02-19T08:36:48.665Z,30.13
2019-02-19T08:39:17.252Z,29.53
2019-02-19T08:41:46.597Z,31.33
2019-02-19T08:44:15.087Z,30.40
2019-02-19T08:46:43.500Z,28.63
2019-02-19T08:49:11.938Z,30.07
2019-02-19T08:51:40.372Z,31.60
2019-02-19T08:54:08.765Z,30.40
2019-02-19T08:56:37.198Z,29.43
2019-02-19T08:59:05.661Z,28.80
2019-02-19T09:01:34.069Z,26.87
2019-02-19T09:04:02.433Z,27.60
2019-02-19T09:06:30.832Z,25.20
2019-02-19T09:08:59.330Z,26.30
2019-02-19T09:11:27.715Z,26.40
2019-02-19T09:13:56.061Z,22.30
2019-02-19T09:16:24.481Z,21.73
2019-02-19T09:18:52.840Z,21.33
2019-02-19T09:21:21.274Z,23.63
2019-02-19T09:23:49.675Z,22.40
2019-02-19T09:26:18.104Z,20.37
2019-02-19T09:28:46.582Z,19.93
2019-02-19T09:31:15.056Z,19.27
2019-02-19T09:33:43.511Z,19.27
2019-02-19T09:36:11.944Z,18.87
2019-02-19T09:38:40.324Z,19.40
2019-02-19T09:41:08.811Z,19.50
2019-02-19T09:43:37.211Z,19.40
2019-02-19T09:46:05.680Z,19.80
2019-02-19T09:48:34.159Z,19.73
2019-02-19T09:51:02.625Z,20.10
2019-02-19T09:53:31.066Z,20.40
2019-02-19T09:55:59.461Z,21.57
2019-02-19T09:58:27.838Z,22.13
2019-02-19T10:00:56.208Z,20.70
2019-02-19T10:03:24.857Z,20.73
2019-02-19T10:05:53.505Z,21.20
2019-02-19T10:08:21.901Z,22.17
2019-02-19T10:10:50.360Z,21.10
2019-02-19T10:13:18.921Z,20.10
2019-02-19T10:15:47.369Z,21.20
2019-02-19T10:18:15.824Z,20.27
2019-02-19T10:20:44.267Z,19.93
2019-02-19T10:23:12.728Z,19.63
2019-02-19T10:25:41.208Z,21.47
2019-02-19T10:28:09.688Z,19.27
2019-02-19T10:30:38.156Z,18.90
2019-02-19T10:33:06.513Z,18.40
2019-02-19T10:35:34.968Z,20.03
2019-02-19T10:38:03.400Z,18.53
2019-02-19T10:40:31.798Z,17.10
2019-02-19T10:43:00.283Z,16.37
2019-02-19T10:45:28.711Z,16.23
2019-02-19T10:47:57.204Z,16.53
2019-02-19T10:50:25.603Z,15.37
2019-02-19T10:52:54.120Z,17.27
2019-02-19T10:55:22.626Z,15.07
2019-02-19T10:57:51.039Z,14.80
2019-02-19T11:00:19.655Z,14.67
2019-02-19T11:02:48.099Z,14.63
2019-02-19T11:05:16.569Z,13.37
2019-02-19T11:07:45.036Z,12.47
2019-02-19T11:10:13.602Z,13.07
2019-02-19T11:12:42.120Z,14.30
2019-02-19T11:15:10.577Z,14.63
2019-02-19T11:17:39.123Z,14.80
2019-02-19T11:20:08.364Z,14.53
2019-02-19T11:22:36.876Z,15.43
2019-02-19T11:25:05.815Z,15.60
2019-02-19T11:27:34.308Z,15.53
2019-02-19T11:30:02.791Z,16.57
2019-02-19T11:32:31.236Z,15.40
2019-02-19T11:34:59.731Z,15.87
2019-02-19T11:37:28.203Z,16.30
2019-02-19T11:39:56.640Z,16.93
2019-02-19T11:42:25.003Z,17.50
2019-02-19T11:44:53.404Z,16.40
2019-02-19T11:47:26.638Z,16.50
2019-02-19T11:49:52.033Z,14.77
2019-02-19T11:52:20.488Z,15.30
2019-02-19T11:54:48.932Z,14.50
2019-02-19T11:57:17.379Z,15.50
2019-02-19T11:59:45.753Z,15.23
2019-02-19T12:02:15.564Z,14.90
2019-02-19T12:04:44.020Z,14.60
2019-02-19T12:07:12.475Z,15.00
2019-02-19T12:09:41.021Z,14.43
2019-02-19T12:12:18.624Z,15.27
2019-02-19T12:14:47.066Z,14.83
2019-02-19T12:17:15.518Z,14.20
2019-02-19T12:19:43.999Z,15.27
2019-02-19T12:22:12.460Z,13.97
2019-02-19T12:24:41.126Z,13.43
2019-02-19T12:27:09.798Z,15.03
2019-02-19T12:29:38.268Z,14.53
2019-02-19T12:32:06.742Z,13.23
2019-02-19T12:34:35.152Z,13.80
2019-02-19T12:37:03.647Z,15.10
2019-02-19T12:39:32.023Z,14.10
2019-02-19T12:42:00.396Z,12.47
2019-02-19T12:44:28.822Z,12.80
2019-02-19T12:46:57.246Z,13.43
2019-02-19T12:49:25.733Z,12.73
2019-02-19T12:51:55.556Z,11.87
2019-02-19T12:54:24.042Z,10.70
2019-02-19T12:56:52.484Z,11.53
2019-02-19T12:59:20.857Z,11.07
2019-02-19T13:01:49.363Z,11.73
2019-02-19T13:04:17.743Z,10.47
2019-02-19T13:06:46.122Z,10.30
2019-02-19T13:09:14.586Z,9.87
2019-02-19T13:11:43.064Z,9.83
2019-02-19T13:14:11.438Z,9.93
2019-02-19T13:16:39.981Z,8.80
2019-02-19T13:19:08.414Z,8.70
2019-02-19T13:21:36.807Z,9.63
2019-02-19T13:24:05.300Z,8.17
2019-02-19T13:26:33.647Z,8.00
2019-02-19T13:29:02.120Z,8.93
2019-02-19T13:31:30.611Z,8.53
2019-02-19T13:33:58.988Z,9.37
2019-02-19T13:36:27.428Z,10.70
2019-02-19T13:38:55.825Z,11.17
2019-02-19T13:41:24.198Z,11.47
2019-02-19T13:43:52.572Z,11.63
2019-02-19T13:46:21.040Z,11.53
2019-02-19T13:48:49.409Z,10.57
2019-02-19T13:51:17.793Z,12.13
2019-02-19T13:53:51.813Z,11.20
2019-02-19T13:56:20.377Z,11.40
2019-02-19T13:58:48.848Z,10.90
2019-02-19T14:01:17.302Z,10.30
2019-02-19T14:03:45.681Z,11.13
2019-02-19T14:06:14.140Z,9.87
2019-02-19T14:08:42.618Z,11.73
2019-02-19T14:11:11.002Z,11.17
2019-02-19T14:13:42.638Z,12.03
2019-02-19T14:16:16.121Z,9.30
2019-02-19T14:18:47.677Z,8.93
2019-02-19T14:21:35.285Z,8.07
2019-02-19T14:24:20.431Z,8.20
2019-02-19T14:27:05.171Z,7.60
2019-02-19T14:29:52.798Z,8.00
2019-02-19T14:32:37.765Z,7.60
2019-02-19T14:35:37.791Z,7.50
2019-02-19T14:38:37.467Z,7.17
2019-02-19T14:48:07.327Z,7.07
2019-02-19T14:51:07.025Z,6.97
2019-02-19T14:53:48.793Z,6.63
2019-02-19T14:56:33.428Z,7.67
2019-02-19T14:59:30.111Z,8.93
2019-02-19T15:02:19.540Z,7.90
2019-02-19T15:05:06.039Z,8.27
2019-02-19T15:07:52.430Z,8.90
2019-02-19T15:10:39.028Z,9.30
2019-02-19T15:13:42.065Z,8.53
2019-02-19T15:16:59.104Z,8.40
2019-02-19T15:19:55.645Z,8.10
2019-02-19T15:22:52.088Z,7.57
2019-02-19T15:25:31.167Z,7.17
2019-02-19T15:28:18.542Z,7.13
2019-02-19T15:31:03.976Z,7.40
2019-02-19T15:33:57.709Z,7.20
2019-02-19T15:36:48.120Z,7.80
2019-02-19T15:39:30.124Z,8.30
2019-02-19T15:42:16.575Z,7.77
2019-02-19T15:45:13.270Z,7.13
2019-02-19T15:48:06.826Z,6.60
2019-02-19T15:50:54.452Z,7.00
2019-02-19T15:53:40.956Z,7.77
2019-02-19T15:56:31.160Z,7.13
2019-02-19T15:59:18.719Z,6.97
2019-02-19T16:02:04.876Z,7.57
2019-02-19T16:04:40.812Z,7.97
2019-02-19T16:07:31.484Z,7.07
2019-02-19T16:10:49.395Z,7.67
2019-02-19T16:13:46.148Z,8.30
2019-02-19T16:16:32.439Z,6.60
2019-02-19T16:19:24.896Z,7.17
2019-02-19T16:22:19.459Z,7.60
2019-02-19T16:25:26.148Z,7.50
2019-02-19T16:28:10.604Z,7.43
2019-02-19T16:31:04.063Z,9.33
2019-02-19T16:34:02.245Z,8.53
2019-02-19T16:36:42.912Z,8.30
2019-02-19T16:39:23.280Z,8.50
2019-02-19T16:42:01.582Z,8.53
2019-02-19T16:44:37.032Z,8.23
2019-02-19T16:47:27.688Z,8.67
2019-02-19T16:50:33.708Z,8.17
2019-02-19T16:53:21.345Z,8.53
2019-02-19T16:56:07.762Z,9.13
2019-02-19T16:58:52.916Z,9.50
2019-02-19T17:01:33.331Z,8.57
2019-02-19T17:04:19.792Z,9.30
2019-02-19T17:07:16.414Z,9.07
2019-02-19T17:09:56.198Z,8.50
2019-02-19T17:12:46.254Z,9.20
2019-02-19T17:15:32.923Z,7.93
2019-02-19T17:18:38.973Z,9.57
2019-02-19T17:21:15.048Z,8.77
2019-02-19T17:24:05.492Z,9.40
2019-02-19T17:26:49.628Z,9.63
2019-02-19T17:29:36.764Z,9.37
2019-02-19T17:32:35.237Z,8.63
2019-02-19T17:35:18.801Z,9.43
2019-02-19T17:38:14.430Z,8.90
2019-02-19T17:40:51.468Z,8.53
2019-02-19T17:43:31.162Z,8.63
2019-02-19T17:46:11.309Z,8.67
2019-02-19T17:48:49.803Z,8.53
2019-02-19T17:51:36.154Z,7.97
2019-02-19T17:54:23.986Z,8.30
2019-02-19T17:57:04.211Z,8.23
2019-02-19T17:59:51.830Z,8.97
2019-02-19T18:02:39.477Z,8.80
2019-02-19T18:05:29.886Z,8.30
2019-02-19T18:08:32.873Z,8.93
2019-02-19T18:11:25.916Z,8.07
2019-02-19T18:14:02.532Z,7.53
2019-02-19T18:16:48.877Z,8.53
2019-02-19T18:19:17.328Z,6.87
2019-02-19T18:21:45.779Z,6.70
2019-02-19T18:24:14.143Z,6.70
2019-02-19T18:26:42.641Z,7.50
2019-02-19T18:29:12.749Z,7.63
2019-02-19T18:31:41.277Z,6.60
2019-02-19T18:34:09.690Z,6.27
2019-02-19T18:36:38.208Z,7.47
2019-02-19T18:39:07.046Z,7.87
2019-02-19T18:41:35.533Z,7.30
2019-02-19T18:44:04.054Z,6.30
2019-02-19T18:46:32.440Z,7.28
2019-02-19T18:49:00.932Z,5.70
2019-02-19T18:51:29.440Z,5.57
2019-02-19T18:53:57.926Z,6.60
2019-02-19T18:56:26.604Z,6.37
2019-02-19T18:58:55.049Z,6.37
2019-02-19T19:01:25.584Z,6.20
2019-02-19T19:03:54.421Z,6.57
2019-02-19T19:06:24.005Z,6.30
2019-02-19T19:08:52.475Z,6.43
2019-02-19T19:11:21.485Z,6.53
2019-02-19T19:13:51.229Z,6.67
2019-02-19T19:16:19.908Z,7.17
2019-02-19T19:18:48.452Z,7.70
2019-02-19T19:21:16.920Z,6.90
2019-02-19T19:23:45.849Z,11.93
2019-02-19T19:26:14.645Z,20.60
2019-02-19T19:28:43.106Z,9.87
2019-02-19T19:31:12.677Z,12.23
2019-02-19T19:33:44.766Z,10.97
2019-02-19T19:36:13.309Z,14.47
2019-02-19T19:38:41.806Z,20.20
2019-02-19T19:41:10.879Z,25.73
2019-02-19T19:43:39.338Z,21.67
2019-02-19T19:46:08.076Z,15.50
2019-02-19T19:48:36.481Z,12.07
2019-02-19T19:51:05.041Z,10.93
2019-02-19T19:53:33.480Z,12.13
2019-02-19T19:56:02.004Z,8.27
2019-02-19T19:58:31.309Z,8.37
2019-02-19T20:00:59.829Z,7.93
2019-02-19T20:03:29.318Z,7.97
2019-02-19T20:05:59.299Z,7.70
2019-02-19T20:08:29.405Z,7.03
2019-02-19T20:10:58.016Z,7.37
2019-02-19T20:13:26.588Z,7.97
2019-02-19T20:15:55.008Z,8.10
2019-02-19T20:18:23.480Z,7.60
2019-02-19T20:20:52.021Z,7.50
2019-02-19T20:23:20.492Z,7.73
2019-02-19T20:25:48.977Z,7.53
2019-02-19T20:28:17.608Z,7.60
2019-02-19T20:30:46.064Z,7.50
2019-02-19T20:33:14.533Z,7.77
2019-02-19T20:35:43.202Z,8.90
2019-02-19T20:38:11.677Z,8.50
2019-02-19T20:40:40.128Z,8.13
2019-02-19T20:43:08.677Z,8.00
2019-02-19T20:45:37.180Z,9.30
2019-02-19T20:48:05.731Z,8.00
2019-02-19T20:50:34.191Z,7.83
2019-02-19T20:53:02.571Z,7.70
2019-02-19T20:55:36.861Z,8.00
2019-02-19T20:58:01.293Z,8.20
2019-02-19T21:00:29.709Z,8.27
2019-02-19T21:02:58.184Z,8.97
2019-02-19T21:05:26.606Z,8.50
2019-02-19T21:07:55.113Z,9.07
2019-02-19T21:10:23.557Z,7.93
2019-02-19T21:12:52.036Z,8.63
2019-02-19T21:15:20.544Z,7.90
2019-02-19T21:17:49.072Z,7.90
2019-02-19T21:20:17.734Z,8.53
2019-02-19T21:22:46.193Z,7.53
2019-02-19T21:25:14.720Z,9.07
2019-02-19T21:27:43.211Z,8.83
2019-02-19T21:30:12.263Z,9.30
2019-02-19T21:32:40.731Z,9.37
2019-02-19T21:35:09.315Z,8.57
2019-02-19T21:37:37.818Z,10.07
2019-02-19T21:40:06.843Z,9.47
2019-02-19T21:42:35.329Z,9.30
2019-02-19T21:45:04.345Z,9.43
2019-02-19T21:47:32.853Z,9.70
2019-02-19T21:50:20.521Z,9.50
2019-02-19T21:52:49.158Z,9.93
2019-02-19T21:55:17.820Z,10.47
2019-02-19T21:57:46.453Z,9.70
2019-02-19T22:00:16.047Z,10.07
2019-02-19T22:02:44.486Z,9.60
2019-02-19T22:05:12.953Z,8.30
2019-02-19T22:07:41.424Z,8.90
2019-02-19T22:10:09.918Z,7.97
2019-02-19T22:12:38.382Z,8.97
2019-02-19T22:15:06.822Z,9.23
2019-02-19T22:17:35.361Z,8.50
2019-02-19T22:20:04.860Z,7.33
2019-02-19T22:22:34.100Z,8.17
2019-02-19T22:25:02.559Z,8.10
2019-02-19T22:27:30.984Z,8.53
2019-02-19T22:29:59.377Z,7.70
2019-02-19T22:32:27.836Z,8.73
2019-02-19T22:34:56.236Z,8.60
2019-02-19T22:37:24.720Z,7.97
2019-02-19T22:39:53.132Z,8.43
2019-02-19T22:42:21.564Z,8.23
2019-02-19T22:44:49.961Z,9.33
2019-02-19T22:47:18.424Z,8.93
2019-02-19T22:49:46.810Z,8.93
2019-02-19T22:52:15.267Z,9.23
2019-02-19T22:54:48.320Z,8.53
2019-02-19T22:57:17.323Z,8.27
2019-02-19T22:59:45.781Z,8.53
2019-02-19T23:02:22.679Z,8.47
2019-02-19T23:04:56.979Z,8.50
2019-02-19T23:07:25.427Z,7.00
2019-02-19T23:09:53.778Z,8.30
2019-02-19T23:12:22.225Z,7.87
2019-02-19T23:14:50.768Z,7.93
2019-02-19T23:17:19.231Z,7.70
2019-02-19T23:19:47.765Z,9.20
2019-02-19T23:22:21.543Z,8.77
2019-02-19T23:24:46.311Z,8.50
2019-02-19T23:27:14.787Z,8.57
2019-02-19T23:29:43.244Z,8.37
2019-02-19T23:32:11.735Z,8.47
2019-02-19T23:34:40.192Z,8.77
2019-02-19T23:37:11.571Z,7.83
2019-02-19T23:39:43.584Z,8.37
2019-02-19T23:42:10.031Z,7.47
2019-02-19T23:44:40.017Z,9.30
2019-02-19T23:47:08.376Z,8.43
2019-02-19T23:49:36.893Z,9.23
2019-02-19T23:52:05.346Z,7.90
2019-02-19T23:54:36.556Z,8.13
2019-02-19T23:57:05.820Z,9.03
2019-02-19T23:59:34.263Z,9.20
